sensor_id;sensor_type;location;lat;lon;timestamp;pressure;altitude;pressure_sealevel;temperature;humidity
54854;BME280;40747;49.480;8.658;2022-11-28T00:02:00;100219.97;;;5.80;100.00
54854;BME280;40747;49.480;8.658;2022-11-28T00:04:25;100205.97;;;5.84;100.00
54854;BME280;40747;49.480;8.658;2022-11-28T00:06:50;100200.69;;;5.87;100.00
54854;BME280;40747;49.480;8.658;2022-11-28T00:09:18;100204.97;;;5.94;100.00
54854;BME280;40747;49.480;8.658;2022-11-28T00:11:44;100194.41;;;6.05;100.00
54854;BME280;40747;49.480;8.658;2022-11-28T00:14:11;100194.41;;;6.05;100.00
54854;BME280;40747;49.480;8.658;2022-11-28T00:16:37;100188.44;;;5.92;100.00
54854;BME280;40747;49.480;8.658;2022-11-28T00:19:03;100185.75;;;5.98;99.62
54854;BME280;40747;49.480;8.658;2022-11-28T00:21:29;100182.97;;;6.11;99.05
54854;BME280;40747;49.480;8.658;2022-11-28T00:23:55;100162.00;;;6.15;98.19
54854;BME280;40747;49.480;8.658;2022-11-28T00:26:27;100180.19;;;6.23;97.08
54854;BME280;40747;49.480;8.658;2022-11-28T00:28:54;100165.22;;;6.31;95.88
54854;BME280;40747;49.480;8.658;2022-11-28T00:31:22;100173.94;;;6.33;96.71
54854;BME280;40747;49.480;8.658;2022-11-28T00:33:48;100172.28;;;6.26;98.61
54854;BME280;40747;49.480;8.658;2022-11-28T00:36:14;100168.03;;;6.19;98.61
54854;BME280;40747;49.480;8.658;2022-11-28T00:38:40;100176.88;;;6.12;98.40
54854;BME280;40747;49.480;8.658;2022-11-28T00:41:10;100188.31;;;6.03;99.52
54854;BME280;40747;49.480;8.658;2022-11-28T00:43:36;100183.41;;;5.78;100.00
54854;BME280;40747;49.480;8.658;2022-11-28T00:46:02;100184.31;;;5.76;100.00
54854;BME280;40747;49.480;8.658;2022-11-28T00:48:28;100188.59;;;5.80;100.00
54854;BME280;40747;49.480;8.658;2022-11-28T00:50:54;100191.06;;;5.90;100.00
54854;BME280;40747;49.480;8.658;2022-11-28T00:53:20;100185.09;;;5.82;100.00
54854;BME280;40747;49.480;8.658;2022-11-28T00:55:45;100173.97;;;5.68;100.00
54854;BME280;40747;49.480;8.658;2022-11-28T00:58:10;100182.53;;;5.78;100.00
54854;BME280;40747;49.480;8.658;2022-11-28T01:00:36;100179.44;;;5.46;100.00
54854;BME280;40747;49.480;8.658;2022-11-28T01:03:02;100176.06;;;5.36;100.00
54854;BME280;40747;49.480;8.658;2022-11-28T01:05:27;100180.53;;;5.25;100.00
54854;BME280;40747;49.480;8.658;2022-11-28T01:07:53;100152.91;;;5.05;100.00
54854;BME280;40747;49.480;8.658;2022-11-28T01:10:18;100175.22;;;5.34;100.00
54854;BME280;40747;49.480;8.658;2022-11-28T01:12:44;100178.38;;;5.61;100.00
54854;BME280;40747;49.480;8.658;2022-11-28T01:15:11;100176.41;;;5.79;99.86
54854;BME280;40747;49.480;8.658;2022-11-28T01:17:36;100160.91;;;5.68;98.75
54854;BME280;40747;49.480;8.658;2022-11-28T01:20:06;100171.09;;;5.86;98.10
54854;BME280;40747;49.480;8.658;2022-11-28T01:22:32;100175.53;;;5.80;98.57
54854;BME280;40747;49.480;8.658;2022-11-28T01:24:57;100186.81;;;5.83;99.04
54854;BME280;40747;49.480;8.658;2022-11-28T01:27:23;100178.00;;;5.92;99.53
54854;BME280;40747;49.480;8.658;2022-11-28T01:29:48;100165.72;;;5.97;98.79
54854;BME280;40747;49.480;8.658;2022-11-28T01:32:14;100191.88;;;5.96;98.90
54854;BME280;40747;49.480;8.658;2022-11-28T01:34:39;100188.34;;;6.01;98.81
54854;BME280;40747;49.480;8.658;2022-11-28T01:37:04;100193.44;;;6.11;98.83
54854;BME280;40747;49.480;8.658;2022-11-28T01:39:30;100181.22;;;6.11;98.22
54854;BME280;40747;49.480;8.658;2022-11-28T01:41:55;100176.78;;;6.16;97.94
54854;BME280;40747;49.480;8.658;2022-11-28T01:46:46;100149.94;;;6.06;96.57
54854;BME280;40747;49.480;8.658;2022-11-28T01:49:17;100141.47;;;5.86;96.13
54854;BME280;40747;49.480;8.658;2022-11-28T01:51:49;100112.00;;;5.74;95.64
54854;BME280;40747;49.480;8.658;2022-11-28T01:54:16;100137.16;;;5.82;96.41
54854;BME280;40747;49.480;8.658;2022-11-28T01:56:57;100140.63;;;5.84;95.94
54854;BME280;40747;49.480;8.658;2022-11-28T01:59:25;100134.50;;;5.86;96.32
54854;BME280;40747;49.480;8.658;2022-11-28T02:01:51;100129.16;;;5.94;97.56
54854;BME280;40747;49.480;8.658;2022-11-28T02:04:17;100115.34;;;5.86;96.22
54854;BME280;40747;49.480;8.658;2022-11-28T02:06:43;100104.16;;;5.74;96.21
54854;BME280;40747;49.480;8.658;2022-11-28T02:09:11;100110.22;;;5.77;95.47
54854;BME280;40747;49.480;8.658;2022-11-28T02:20:18;100112.59;;;5.94;97.88
54854;BME280;40747;49.480;8.658;2022-11-28T02:22:59;100093.31;;;6.04;97.35
54854;BME280;40747;49.480;8.658;2022-11-28T02:33:52;100088.81;;;6.12;95.72
54854;BME280;40747;49.480;8.658;2022-11-28T02:36:29;100094.81;;;6.17;97.66
54854;BME280;40747;49.480;8.658;2022-11-28T02:44:15;100095.09;;;6.00;90.34
54854;BME280;40747;49.480;8.658;2022-11-28T02:49:13;100081.94;;;6.06;90.15
54854;BME280;40747;49.480;8.658;2022-11-28T02:51:46;100071.38;;;6.13;92.55
54854;BME280;40747;49.480;8.658;2022-11-28T02:54:14;100073.16;;;6.11;93.17
54854;BME280;40747;49.480;8.658;2022-11-28T02:56:49;100087.16;;;6.06;94.21
54854;BME280;40747;49.480;8.658;2022-11-28T03:05:20;100069.47;;;5.63;96.10
54854;BME280;40747;49.480;8.658;2022-11-28T03:08:03;100063.19;;;5.77;96.07
54854;BME280;40747;49.480;8.658;2022-11-28T03:13:45;100055.88;;;6.00;96.52
54854;BME280;40747;49.480;8.658;2022-11-28T03:16:33;100062.09;;;5.91;91.35
54854;BME280;40747;49.480;8.658;2022-11-28T03:19:19;100067.50;;;5.79;93.07
54854;BME280;40747;49.480;8.658;2022-11-28T03:21:56;100067.84;;;5.56;96.07
54854;BME280;40747;49.480;8.658;2022-11-28T03:24:35;100064.09;;;5.12;99.35
54854;BME280;40747;49.480;8.658;2022-11-28T03:27:07;100063.09;;;5.20;100.00
54854;BME280;40747;49.480;8.658;2022-11-28T03:30:05;100047.25;;;5.33;99.93
54854;BME280;40747;49.480;8.658;2022-11-28T03:32:32;100046.34;;;5.35;99.88
54854;BME280;40747;49.480;8.658;2022-11-28T03:35:06;100048.63;;;5.62;98.35
54854;BME280;40747;49.480;8.658;2022-11-28T03:37:37;100048.53;;;5.68;98.07
54854;BME280;40747;49.480;8.658;2022-11-28T03:40:09;100053.03;;;5.56;98.39
54854;BME280;40747;49.480;8.658;2022-11-28T03:42:40;100064.06;;;5.77;97.35
54854;BME280;40747;49.480;8.658;2022-11-28T03:45:07;100067.47;;;5.82;97.75
54854;BME280;40747;49.480;8.658;2022-11-28T03:47:40;100050.09;;;5.77;97.28
54854;BME280;40747;49.480;8.658;2022-11-28T03:50:19;100053.16;;;5.49;98.38
54854;BME280;40747;49.480;8.658;2022-11-28T03:52:52;100056.66;;;5.46;99.66
54854;BME280;40747;49.480;8.658;2022-11-28T03:55:23;100049.75;;;5.44;100.00
54854;BME280;40747;49.480;8.658;2022-11-28T04:00:34;100049.03;;;5.32;100.00
54854;BME280;40747;49.480;8.658;2022-11-28T04:05:42;100062.22;;;5.20;100.00
54854;BME280;40747;49.480;8.658;2022-11-28T04:08:35;100059.56;;;5.24;100.00
54854;BME280;40747;49.480;8.658;2022-11-28T04:11:07;100069.03;;;5.33;100.00
54854;BME280;40747;49.480;8.658;2022-11-28T04:16:03;99997.13;;;5.09;100.00
54854;BME280;40747;49.480;8.658;2022-11-28T04:23:31;100048.63;;;5.62;100.00
54854;BME280;40747;49.480;8.658;2022-11-28T04:26:02;100055.44;;;5.70;100.00
54854;BME280;40747;49.480;8.658;2022-11-28T04:28:32;100044.09;;;5.71;100.00
54854;BME280;40747;49.480;8.658;2022-11-28T04:31:01;100032.78;;;5.71;100.00
54854;BME280;40747;49.480;8.658;2022-11-28T04:33:31;100046.63;;;5.78;100.00
54854;BME280;40747;49.480;8.658;2022-11-28T04:35:58;100045.97;;;5.63;100.00
54854;BME280;40747;49.480;8.658;2022-11-28T04:38:25;100056.56;;;5.54;100.00
54854;BME280;40747;49.480;8.658;2022-11-28T04:43:34;100060.28;;;5.34;100.00
54854;BME280;40747;49.480;8.658;2022-11-28T04:46:23;100069.00;;;5.35;100.00
54854;BME280;40747;49.480;8.658;2022-11-28T04:48:51;100046.69;;;5.11;100.00
54854;BME280;40747;49.480;8.658;2022-11-28T04:51:23;100055.63;;;4.89;100.00
54854;BME280;40747;49.480;8.658;2022-11-28T04:56:35;100045.22;;;4.88;100.00
54854;BME280;40747;49.480;8.658;2022-11-28T04:59:04;100050.19;;;5.09;100.00
54854;BME280;40747;49.480;8.658;2022-11-28T05:01:31;100057.81;;;5.25;100.00
54854;BME280;40747;49.480;8.658;2022-11-28T05:06:31;100054.06;;;5.46;100.00
54854;BME280;40747;49.480;8.658;2022-11-28T05:08:57;100044.41;;;5.50;100.00
54854;BME280;40747;49.480;8.658;2022-11-28T05:11:22;100039.22;;;5.47;100.00
54854;BME280;40747;49.480;8.658;2022-11-28T05:13:47;100023.66;;;5.39;98.06
54854;BME280;40747;49.480;8.658;2022-11-28T05:16:13;100034.22;;;5.31;95.16
54854;BME280;40747;49.480;8.658;2022-11-28T05:18:39;100033.34;;;5.32;93.43
54854;BME280;40747;49.480;8.658;2022-11-28T05:21:04;100006.56;;;5.16;92.25
54854;BME280;40747;49.480;8.658;2022-11-28T05:23:41;100019.63;;;5.16;92.36
54854;BME280;40747;49.480;8.658;2022-11-28T05:26:11;100036.84;;;5.31;91.55
54854;BME280;40747;49.480;8.658;2022-11-28T05:28:37;100028.03;;;5.37;91.13
54854;BME280;40747;49.480;8.658;2022-11-28T05:31:03;100023.66;;;4.70;93.72
54854;BME280;40747;49.480;8.658;2022-11-28T05:33:30;100033.66;;;4.31;94.44
54854;BME280;40747;49.480;8.658;2022-11-28T05:35:59;100029.41;;;4.18;94.81
54854;BME280;40747;49.480;8.658;2022-11-28T05:38:26;100029.38;;;4.24;94.42
54854;BME280;40747;49.480;8.658;2022-11-28T05:40:51;100006.66;;;4.35;94.77
54854;BME280;40747;49.480;8.658;2022-11-28T05:43:17;100016.00;;;4.55;93.62
54854;BME280;40747;49.480;8.658;2022-11-28T05:45:43;100011.50;;;4.68;92.65
54854;BME280;40747;49.480;8.658;2022-11-28T05:48:09;100014.16;;;4.66;93.12
54854;BME280;40747;49.480;8.658;2022-11-28T05:50:34;100007.19;;;4.68;91.91
54854;BME280;40747;49.480;8.658;2022-11-28T05:52:59;100002.97;;;4.55;93.09
54854;BME280;40747;49.480;8.658;2022-11-28T05:55:25;100013.44;;;4.53;93.13
54854;BME280;40747;49.480;8.658;2022-11-28T05:57:50;100020.31;;;4.57;93.03
54854;BME280;40747;49.480;8.658;2022-11-28T06:00:16;100016.94;;;4.51;93.03
54854;BME280;40747;49.480;8.658;2022-11-28T06:02:41;100002.16;;;4.50;92.98
54854;BME280;40747;49.480;8.658;2022-11-28T06:05:06;100011.69;;;4.55;94.12
54854;BME280;40747;49.480;8.658;2022-11-28T06:07:32;100010.94;;;4.42;96.25
54854;BME280;40747;49.480;8.658;2022-11-28T06:09:57;100002.13;;;4.51;94.44
54854;BME280;40747;49.480;8.658;2022-11-28T06:12:23;100003.72;;;4.66;92.79
54854;BME280;40747;49.480;8.658;2022-11-28T06:14:48;99999.44;;;4.61;92.54
54854;BME280;40747;49.480;8.658;2022-11-28T06:17:13;100001.38;;;4.41;93.38
54854;BME280;40747;49.480;8.658;2022-11-28T06:19:39;99996.78;;;4.64;92.72
54854;BME280;40747;49.480;8.658;2022-11-28T06:22:04;100002.78;;;4.73;92.63
54854;BME280;40747;49.480;8.658;2022-11-28T06:24:29;99999.25;;;4.76;91.17
54854;BME280;40747;49.480;8.658;2022-11-28T06:26:55;100001.03;;;4.72;90.97
54854;BME280;40747;49.480;8.658;2022-11-28T06:29:20;99998.38;;;4.75;90.93
54854;BME280;40747;49.480;8.658;2022-11-28T06:31:46;99995.03;;;4.64;90.78
54854;BME280;40747;49.480;8.658;2022-11-28T06:34:11;100008.09;;;4.63;92.01
54854;BME280;40747;49.480;8.658;2022-11-28T06:36:37;100012.19;;;4.85;91.44
54854;BME280;40747;49.480;8.658;2022-11-28T06:39:03;100016.25;;;5.08;89.94
54854;BME280;40747;49.480;8.658;2022-11-28T06:41:28;100021.88;;;5.43;87.90
54854;BME280;40747;49.480;8.658;2022-11-28T06:43:55;100012.38;;;5.38;86.65
54854;BME280;40747;49.480;8.658;2022-11-28T06:46:22;100024.34;;;5.52;86.96
54854;BME280;40747;49.480;8.658;2022-11-28T06:48:49;100024.09;;;5.69;87.55
54854;BME280;40747;49.480;8.658;2022-11-28T06:51:15;100023.06;;;5.81;87.53
54854;BME280;40747;49.480;8.658;2022-11-28T06:53:41;100016.97;;;5.79;87.04
54854;BME280;40747;49.480;8.658;2022-11-28T06:56:09;100022.81;;;5.96;86.22
54854;BME280;40747;49.480;8.658;2022-11-28T06:58:35;100018.50;;;5.94;86.28
54854;BME280;40747;49.480;8.658;2022-11-28T07:01:20;100022.69;;;6.05;85.54
54854;BME280;40747;49.480;8.658;2022-11-28T07:03:47;100020.00;;;6.09;85.80
54854;BME280;40747;49.480;8.658;2022-11-28T07:06:14;100019.91;;;6.15;84.97
54854;BME280;40747;49.480;8.658;2022-11-28T07:08:40;100027.59;;;6.24;87.32
54854;BME280;40747;49.480;8.658;2022-11-28T07:11:11;100029.47;;;6.16;85.75
54854;BME280;40747;49.480;8.658;2022-11-28T07:13:38;100045.06;;;6.22;86.41
54854;BME280;40747;49.480;8.658;2022-11-28T07:16:03;100039.66;;;6.31;85.81
54854;BME280;40747;49.480;8.658;2022-11-28T07:18:29;100043.81;;;6.43;85.88
54854;BME280;40747;49.480;8.658;2022-11-28T07:20:54;100042.31;;;6.30;85.34
54854;BME280;40747;49.480;8.658;2022-11-28T07:23:19;100043.91;;;6.38;84.84
54854;BME280;40747;49.480;8.658;2022-11-28T07:25:45;100046.69;;;6.28;84.53
54854;BME280;40747;49.480;8.658;2022-11-28T07:28:10;100041.34;;;6.35;85.08
54854;BME280;40747;49.480;8.658;2022-11-28T07:30:35;100037.78;;;6.39;85.70
54854;BME280;40747;49.480;8.658;2022-11-28T07:33:01;100049.06;;;6.42;85.66
54854;BME280;40747;49.480;8.658;2022-11-28T07:35:26;100052.16;;;6.14;86.12
54854;BME280;40747;49.480;8.658;2022-11-28T07:37:51;100039.84;;;6.22;87.13
54854;BME280;40747;49.480;8.658;2022-11-28T07:40:16;100047.41;;;6.37;87.71
54854;BME280;40747;49.480;8.658;2022-11-28T07:42:44;100045.78;;;6.30;87.53
54854;BME280;40747;49.480;8.658;2022-11-28T07:45:09;100045.88;;;6.26;87.45
54854;BME280;40747;49.480;8.658;2022-11-28T07:47:35;100038.81;;;6.31;87.58
54854;BME280;40747;49.480;8.658;2022-11-28T07:50:00;100038.91;;;6.25;88.04
54854;BME280;40747;49.480;8.658;2022-11-28T07:52:26;100045.91;;;6.22;88.22
54854;BME280;40747;49.480;8.658;2022-11-28T07:54:51;100045.72;;;6.35;88.40
54854;BME280;40747;49.480;8.658;2022-11-28T07:57:16;100036.75;;;6.48;87.34
54854;BME280;40747;49.480;8.658;2022-11-28T07:59:42;100040.34;;;6.43;87.92
54854;BME280;40747;49.480;8.658;2022-11-28T08:02:09;100035.72;;;6.57;87.77
54854;BME280;40747;49.480;8.658;2022-11-28T08:04:35;100040.97;;;6.55;87.87
54854;BME280;40747;49.480;8.658;2022-11-28T08:07:01;100029.50;;;6.63;88.39
54854;BME280;40747;49.480;8.658;2022-11-28T08:09:26;100030.38;;;6.63;88.70
54854;BME280;40747;49.480;8.658;2022-11-28T08:11:52;100031.88;;;6.75;88.59
54854;BME280;40747;49.480;8.658;2022-11-28T08:14:17;100037.81;;;6.85;88.86
54854;BME280;40747;49.480;8.658;2022-11-28T08:16:43;100037.81;;;6.85;89.07
54854;BME280;40747;49.480;8.658;2022-11-28T08:19:11;100033.38;;;6.88;89.39
54854;BME280;40747;49.480;8.658;2022-11-28T08:21:37;100036.69;;;6.98;88.46
54854;BME280;40747;49.480;8.658;2022-11-28T08:24:04;100038.22;;;7.09;88.07
54854;BME280;40747;49.480;8.658;2022-11-28T08:26:32;100039.72;;;7.19;87.60
54854;BME280;40747;49.480;8.658;2022-11-28T08:28:58;100037.03;;;7.22;88.42
54854;BME280;40747;49.480;8.658;2022-11-28T08:31:27;100034.28;;;7.28;89.64
54854;BME280;40747;49.480;8.658;2022-11-28T08:33:54;100048.34;;;7.24;88.92
54854;BME280;40747;49.480;8.658;2022-11-28T08:36:20;100037.06;;;7.20;88.01
54854;BME280;40747;49.480;8.658;2022-11-28T08:38:46;100038.84;;;7.20;89.66
54854;BME280;40747;49.480;8.658;2022-11-28T08:41:18;100021.69;;;7.05;88.31
54854;BME280;40747;49.480;8.658;2022-11-28T08:43:44;100038.81;;;7.21;88.49
54854;BME280;40747;49.480;8.658;2022-11-28T08:46:11;100041.47;;;7.18;86.94
54854;BME280;40747;49.480;8.658;2022-11-28T08:48:38;100044.78;;;7.28;87.08
54854;BME280;40747;49.480;8.658;2022-11-28T08:51:04;100037.63;;;7.35;87.83
54854;BME280;40747;49.480;8.658;2022-11-28T08:53:30;100044.28;;;7.50;88.90
54854;BME280;40747;49.480;8.658;2022-11-28T08:55:56;100034.00;;;7.42;87.09
54854;BME280;40747;49.480;8.658;2022-11-28T08:58:21;100035.47;;;7.54;87.19
54854;BME280;40747;49.480;8.658;2022-11-28T09:00:47;100039.69;;;7.61;87.06
54854;BME280;40747;49.480;8.658;2022-11-28T09:03:15;100043.81;;;7.71;87.35
54854;BME280;40747;49.480;8.658;2022-11-28T09:05:42;100042.25;;;7.63;85.66
54854;BME280;40747;49.480;8.658;2022-11-28T09:08:09;100044.91;;;7.61;85.19
54854;BME280;40747;49.480;8.658;2022-11-28T09:10:36;100036.97;;;7.64;85.58
54854;BME280;40747;49.480;8.658;2022-11-28T09:13:02;100029.84;;;7.69;86.13
54854;BME280;40747;49.480;8.658;2022-11-28T09:15:27;100033.94;;;7.83;85.48
54854;BME280;40747;49.480;8.658;2022-11-28T09:17:52;100038.28;;;7.84;84.51
54854;BME280;40747;49.480;8.658;2022-11-28T09:20:18;100033.56;;;7.98;86.12
54854;BME280;40747;49.480;8.658;2022-11-28T09:22:44;100043.06;;;8.02;85.96
54854;BME280;40747;49.480;8.658;2022-11-28T09:25:11;100037.03;;;7.99;85.31
54854;BME280;40747;49.480;8.658;2022-11-28T09:27:36;100037.72;;;8.07;84.42
54854;BME280;40747;49.480;8.658;2022-11-28T09:30:02;100043.50;;;8.20;83.55
54854;BME280;40747;49.480;8.658;2022-11-28T09:32:27;100038.22;;;8.22;84.06
54854;BME280;40747;49.480;8.658;2022-11-28T09:34:52;100038.97;;;8.27;84.73
54854;BME280;40747;49.480;8.658;2022-11-28T09:37:18;100043.28;;;8.29;84.23
54854;BME280;40747;49.480;8.658;2022-11-28T09:39:43;100046.69;;;8.33;82.26
54854;BME280;40747;49.480;8.658;2022-11-28T09:42:21;100042.84;;;8.46;82.16
54854;BME280;40747;49.480;8.658;2022-11-28T09:44:53;100032.47;;;8.42;82.32
54854;BME280;40747;49.480;8.658;2022-11-28T09:47:24;100034.19;;;8.43;81.93
54854;BME280;40747;49.480;8.658;2022-11-28T09:52:35;100044.38;;;8.55;82.79
54854;BME280;40747;49.480;8.658;2022-11-28T09:57:46;100031.19;;;8.57;82.57
54854;BME280;40747;49.480;8.658;2022-11-28T10:00:23;100034.56;;;8.63;83.41
54854;BME280;40747;49.480;8.658;2022-11-28T10:05:50;100020.13;;;8.45;80.68
54854;BME280;40747;49.480;8.658;2022-11-28T10:10:53;100035.44;;;8.62;81.12
54854;BME280;40747;49.480;8.658;2022-11-28T10:16:11;100028.78;;;8.49;81.84
54854;BME280;40747;49.480;8.658;2022-11-28T10:19:02;100031.41;;;8.49;82.26
54854;BME280;40747;49.480;8.658;2022-11-28T10:21:35;100022.47;;;8.56;80.94
54854;BME280;40747;49.480;8.658;2022-11-28T10:24:06;100010.19;;;8.58;82.96
54854;BME280;40747;49.480;8.658;2022-11-28T10:26:38;100022.53;;;8.55;81.38
54854;BME280;40747;49.480;8.658;2022-11-28T10:29:25;100025.00;;;8.61;84.77
54854;BME280;40747;49.480;8.658;2022-11-28T10:31:56;100029.63;;;8.51;85.06
54854;BME280;40747;49.480;8.658;2022-11-28T10:34:29;100034.34;;;8.36;89.69
54854;BME280;40747;49.480;8.658;2022-11-28T10:37:23;100034.75;;;8.21;94.48
54854;BME280;40747;49.480;8.658;2022-11-28T10:39:49;100041.34;;;8.01;96.30
54854;BME280;40747;49.480;8.658;2022-11-28T10:42:19;100043.34;;;7.90;95.60
54854;BME280;40747;49.480;8.658;2022-11-28T10:47:56;100039.00;;;7.91;96.16
54854;BME280;40747;49.480;8.658;2022-11-28T10:50:30;100035.47;;;7.92;97.21
54854;BME280;40747;49.480;8.658;2022-11-28T11:00:46;100023.66;;;8.10;94.18
54854;BME280;40747;49.480;8.658;2022-11-28T11:03:17;100013.91;;;8.15;95.87
54854;BME280;40747;49.480;8.658;2022-11-28T11:05:43;100016.38;;;8.21;94.13
54854;BME280;40747;49.480;8.658;2022-11-28T11:08:17;100010.72;;;8.36;96.06
54854;BME280;40747;49.480;8.658;2022-11-28T11:13:22;100006.13;;;8.45;96.90
54854;BME280;40747;49.480;8.658;2022-11-28T11:15:51;100000.84;;;8.46;96.57
54854;BME280;40747;49.480;8.658;2022-11-28T11:20:47;100002.66;;;8.44;99.06
54854;BME280;40747;49.480;8.658;2022-11-28T11:23:18;100002.66;;;8.44;99.46
54854;BME280;40747;49.480;8.658;2022-11-28T11:25:57;100001.75;;;8.47;99.37
54854;BME280;40747;49.480;8.658;2022-11-28T11:31:00;99991.97;;;8.52;97.79
54854;BME280;40747;49.480;8.658;2022-11-28T11:33:31;99992.81;;;8.52;97.57
54854;BME280;40747;49.480;8.658;2022-11-28T11:35:57;99983.00;;;8.59;99.68
54854;BME280;40747;49.480;8.658;2022-11-28T11:38:33;99967.34;;;8.56;99.29
54854;BME280;40747;49.480;8.658;2022-11-28T11:41:18;99988.75;;;8.74;98.38
54854;BME280;40747;49.480;8.658;2022-11-28T11:43:44;99982.53;;;8.76;100.00
54854;BME280;40747;49.480;8.658;2022-11-28T11:46:12;99981.78;;;8.73;100.00
54854;BME280;40747;49.480;8.658;2022-11-28T11:48:43;99967.81;;;8.71;100.00
54854;BME280;40747;49.480;8.658;2022-11-28T11:51:29;99978.97;;;8.79;100.00
54854;BME280;40747;49.480;8.658;2022-11-28T11:54:03;99970.13;;;8.81;100.00
54854;BME280;40747;49.480;8.658;2022-11-28T11:56:34;99974.72;;;8.75;100.00
54854;BME280;40747;49.480;8.658;2022-11-28T11:59:02;99976.69;;;8.66;100.00
54854;BME280;40747;49.480;8.658;2022-11-28T12:01:30;99967.13;;;8.64;100.00
54854;BME280;40747;49.480;8.658;2022-11-28T12:04:06;99978.25;;;8.74;100.00
54854;BME280;40747;49.480;8.658;2022-11-28T12:06:36;99969.63;;;8.68;100.00
54854;BME280;40747;49.480;8.658;2022-11-28T12:11:51;99977.72;;;8.61;100.00
54854;BME280;40747;49.480;8.658;2022-11-28T12:14:32;99977.75;;;8.59;100.00
54854;BME280;40747;49.480;8.658;2022-11-28T12:30:57;99960.44;;;9.13;100.00
54854;BME280;40747;49.480;8.658;2022-11-28T12:36:28;99942.34;;;9.31;100.00
54854;BME280;40747;49.480;8.658;2022-11-28T12:52:43;99920.13;;;8.84;100.00
54854;BME280;40747;49.480;8.658;2022-11-28T12:58:12;99954.72;;;8.99;100.00
54854;BME280;40747;49.480;8.658;2022-11-28T13:03:41;99952.56;;;9.13;100.00
54854;BME280;40747;49.480;8.658;2022-11-28T13:08:55;99948.97;;;9.16;100.00
54854;BME280;40747;49.480;8.658;2022-11-28T13:11:35;99946.47;;;9.40;100.00
54854;BME280;40747;49.480;8.658;2022-11-28T13:14:13;99947.03;;;9.49;100.00
54854;BME280;40747;49.480;8.658;2022-11-28T13:16:51;99947.88;;;9.51;100.00
54854;BME280;40747;49.480;8.658;2022-11-28T13:22:03;99941.41;;;9.62;100.00
54854;BME280;40747;49.480;8.658;2022-11-28T13:35:19;99940.50;;;9.88;100.00
54854;BME280;40747;49.480;8.658;2022-11-28T13:37:59;99932.78;;;9.83;100.00
54854;BME280;40747;49.480;8.658;2022-11-28T13:40:44;99935.25;;;9.88;100.00
54854;BME280;40747;49.480;8.658;2022-11-28T13:43:23;99932.56;;;9.90;100.00
54854;BME280;40747;49.480;8.658;2022-11-28T13:45:52;99937.63;;;9.69;100.00
54854;BME280;40747;49.480;8.658;2022-11-28T13:51:00;99928.06;;;9.66;100.00
54854;BME280;40747;49.480;8.658;2022-11-28T13:53:26;99933.84;;;9.78;100.00
54854;BME280;40747;49.480;8.658;2022-11-28T13:56:18;99938.78;;;9.87;100.00
54854;BME280;40747;49.480;8.658;2022-11-28T13:59:03;99931.81;;;9.86;100.00
54854;BME280;40747;49.480;8.658;2022-11-28T14:01:42;99923.94;;;9.86;99.50
54854;BME280;40747;49.480;8.658;2022-11-28T14:04:11;99922.78;;;9.93;100.00
54854;BME280;40747;49.480;8.658;2022-11-28T14:09:20;99915.59;;;9.98;99.90
54854;BME280;40747;49.480;8.658;2022-11-28T14:12:15;99920.88;;;9.73;100.00
54854;BME280;40747;49.480;8.658;2022-11-28T14:17:27;99918.38;;;9.68;100.00
54854;BME280;40747;49.480;8.658;2022-11-28T14:20:18;99921.00;;;9.68;100.00
54854;BME280;40747;49.480;8.658;2022-11-28T14:25:45;99923.31;;;9.78;100.00
54854;BME280;40747;49.480;8.658;2022-11-28T14:30:49;99930.59;;;9.96;99.90
54854;BME280;40747;49.480;8.658;2022-11-28T14:33:25;99927.75;;;10.03;98.31
54854;BME280;40747;49.480;8.658;2022-11-28T14:41:09;99938.22;;;10.04;100.00
54854;BME280;40747;49.480;8.658;2022-11-28T14:43:45;99937.78;;;9.91;99.66
54854;BME280;40747;49.480;8.658;2022-11-28T14:48:40;99938.38;;;8.59;100.00
54854;BME280;40747;49.480;8.658;2022-11-28T14:51:07;99948.97;;;7.54;100.00
54854;BME280;40747;49.480;8.658;2022-11-28T14:56:28;99941.28;;;7.46;100.00
54854;BME280;40747;49.480;8.658;2022-11-28T14:58:59;99933.16;;;7.59;100.00
54854;BME280;40747;49.480;8.658;2022-11-28T15:01:40;99937.22;;;7.70;100.00
54854;BME280;40747;49.480;8.658;2022-11-28T15:06:51;99939.47;;;7.50;100.00
54854;BME280;40747;49.480;8.658;2022-11-28T15:09:58;99946.63;;;7.42;100.00
54854;BME280;40747;49.480;8.658;2022-11-28T15:12:37;99940.69;;;7.35;100.00
54854;BME280;40747;49.480;8.658;2022-11-28T15:15:11;99944.47;;;7.23;100.00
54854;BME280;40747;49.480;8.658;2022-11-28T15:17:38;99952.88;;;6.98;100.00
54854;BME280;40747;49.480;8.658;2022-11-28T15:20:17;99949.75;;;7.21;100.00
54854;BME280;40747;49.480;8.658;2022-11-28T15:22:44;99948.78;;;6.85;100.00
54854;BME280;40747;49.480;8.658;2022-11-28T15:25:25;99950.50;;;6.86;100.00
54854;BME280;40747;49.480;8.658;2022-11-28T15:27:52;99952.78;;;6.61;100.00
54854;BME280;40747;49.480;8.658;2022-11-28T15:30:20;99961.50;;;6.61;100.00
54854;BME280;40747;49.480;8.658;2022-11-28T15:32:48;99960.63;;;6.61;100.00
54854;BME280;40747;49.480;8.658;2022-11-28T15:35:15;99965.81;;;6.62;100.00
54854;BME280;40747;49.480;8.658;2022-11-28T15:37:56;99965.97;;;6.97;100.00
54854;BME280;40747;49.480;8.658;2022-11-28T15:40:31;99963.47;;;7.31;100.00
54854;BME280;40747;49.480;8.658;2022-11-28T15:42:57;99961.28;;;7.50;100.00
54854;BME280;40747;49.480;8.658;2022-11-28T15:45:28;99968.69;;;7.70;100.00
54854;BME280;40747;49.480;8.658;2022-11-28T15:47:55;99965.50;;;7.92;100.00
54854;BME280;40747;49.480;8.658;2022-11-28T15:50:23;99970.50;;;8.01;100.00
54854;BME280;40747;49.480;8.658;2022-11-28T15:53:16;99976.44;;;8.10;100.00
54854;BME280;40747;49.480;8.658;2022-11-28T15:55:41;99976.03;;;8.25;100.00
54854;BME280;40747;49.480;8.658;2022-11-28T16:00:40;99960.72;;;8.41;100.00
54854;BME280;40747;49.480;8.658;2022-11-28T16:03:14;99961.31;;;8.52;100.00
54854;BME280;40747;49.480;8.658;2022-11-28T16:05:40;99968.69;;;8.71;100.00
54854;BME280;40747;49.480;8.658;2022-11-28T16:08:26;99964.97;;;8.78;100.00